createdAt,value
2023-02-28T00:00:49.956Z,97523.56
2023-02-28T00:03:16.502Z,97529.50
2023-02-28T00:05:42.975Z,97522.81
2023-02-28T00:08:09.578Z,97531.31
2023-02-28T00:10:36.276Z,97531.34
2023-02-28T00:13:03.808Z,97525.47
2023-02-28T00:15:30.281Z,97522.22
2023-02-28T00:17:56.837Z,97534.06
2023-02-28T00:20:23.298Z,97524.88
2023-02-28T00:22:50.519Z,97520.63
2023-02-28T00:25:18.788Z,97513.84
2023-02-28T00:27:45.265Z,97524.06
2023-02-28T00:30:12.921Z,97527.47
2023-02-28T00:32:39.390Z,97532.63
2023-02-28T00:35:06.114Z,97536.97
2023-02-28T00:37:32.542Z,97537.91
2023-02-28T00:39:58.964Z,97533.78
2023-02-28T00:42:25.426Z,97527.94
2023-02-28T00:44:51.889Z,97527.16
2023-02-28T00:47:18.373Z,97525.63
2023-02-28T00:49:45.022Z,97531.59
2023-02-28T00:52:11.473Z,97531.69
2023-02-28T00:54:37.941Z,97540.19
2023-02-28T00:57:04.463Z,97539.44
2023-02-28T00:59:30.975Z,97532.69
2023-02-28T01:01:57.398Z,97529.34
2023-02-28T01:04:23.851Z,97523.50
2023-02-28T01:06:50.380Z,97516.84
2023-02-28T01:09:16.928Z,97516.03
2023-02-28T01:11:44.999Z,97517.84
2023-02-28T01:14:14.987Z,97513.66
2023-02-28T01:16:41.395Z,97517.03
2023-02-28T01:19:07.928Z,97519.56
2023-02-28T01:21:35.844Z,97517.94
2023-02-28T01:24:02.485Z,97512.94
2023-02-28T01:26:28.944Z,97519.69
2023-02-28T01:28:55.385Z,97520.56
2023-02-28T01:31:22.205Z,97516.25
2023-02-28T01:33:48.880Z,97513.72
2023-02-28T01:36:16.334Z,97511.06
2023-02-28T01:38:42.915Z,97511.84
2023-02-28T01:41:09.511Z,97508.41
2023-02-28T01:43:45.279Z,97508.41
2023-02-28T01:46:12.061Z,97503.28
2023-02-28T01:48:39.742Z,97507.47
2023-02-28T01:51:06.876Z,97506.53
2023-02-28T01:53:34.713Z,97507.25
2023-02-28T01:56:01.127Z,97511.44
2023-02-28T01:58:27.653Z,97497.94
2023-02-28T02:00:54.420Z,97502.13
2023-02-28T02:03:20.909Z,97487.72
2023-02-28T02:05:48.826Z,97493.69
2023-02-28T02:08:22.699Z,97503.88
2023-02-28T02:10:51.277Z,97502.31
2023-02-28T02:13:36.315Z,97501.53
2023-02-28T02:16:05.605Z,97505.00
2023-02-28T02:18:40.900Z,97511.00
2023-02-28T02:21:26.312Z,97508.53
2023-02-28T02:23:55.765Z,97511.94
2023-02-28T02:26:40.699Z,97516.19
2023-02-28T02:29:09.915Z,97516.34
2023-02-28T02:31:36.557Z,97518.22
2023-02-28T02:34:21.933Z,97510.72
2023-02-28T02:36:53.257Z,97514.09
2023-02-28T02:39:31.633Z,97508.25
2023-02-28T02:41:59.341Z,97504.03
2023-02-28T02:44:28.283Z,97504.94
2023-02-28T02:46:55.948Z,97509.25
2023-02-28T02:49:24.147Z,97500.88
2023-02-28T02:51:50.605Z,97506.00
2023-02-28T02:54:46.497Z,97500.16
2023-02-28T02:57:14.694Z,97504.47
2023-02-28T02:59:41.596Z,97507.09
2023-02-28T03:02:09.116Z,97509.69
2023-02-28T03:04:37.537Z,97513.09
2023-02-28T03:07:04.037Z,97513.16
2023-02-28T03:09:30.540Z,97511.53
2023-02-28T03:11:57.044Z,97520.00
2023-02-28T03:14:23.501Z,97520.94
2023-02-28T03:16:53.860Z,97526.88
2023-02-28T03:19:38.670Z,97532.00
2023-02-28T03:22:08.187Z,97530.34
2023-02-28T03:24:34.814Z,97527.91
2023-02-28T03:27:24.728Z,97533.03
2023-02-28T03:29:57.387Z,97530.59
2023-02-28T03:32:31.130Z,97529.72
2023-02-28T03:34:59.438Z,97534.78
2023-02-28T03:37:25.998Z,97528.94
2023-02-28T03:40:02.294Z,97527.25
2023-02-28T03:42:37.814Z,97536.50
2023-02-28T03:45:11.992Z,97538.28
2023-02-28T03:47:40.427Z,97540.88
2023-02-28T03:50:09.081Z,97538.41
2023-02-28T03:52:36.336Z,97533.38
2023-02-28T03:55:08.261Z,97540.09
2023-02-28T03:57:40.820Z,97541.75
2023-02-28T04:00:08.948Z,97546.75
2023-02-28T04:02:35.424Z,97547.50
2023-02-28T04:05:31.804Z,97547.44
2023-02-28T04:08:05.217Z,97545.69
2023-02-28T04:10:31.852Z,97549.00
2023-02-28T04:12:58.326Z,97545.53
2023-02-28T04:15:25.734Z,97543.00
2023-02-28T04:17:52.189Z,97548.84
2023-02-28T04:20:18.651Z,97547.09
2023-02-28T04:22:45.125Z,97546.94
2023-02-28T04:25:11.575Z,97551.91
2023-02-28T04:27:38.032Z,97548.38
2023-02-28T04:30:04.767Z,97547.34
2023-02-28T04:32:31.226Z,97554.78
2023-02-28T04:34:57.877Z,97548.69
2023-02-28T04:37:28.887Z,97551.94
2023-02-28T04:39:56.062Z,97556.91
2023-02-28T04:42:22.500Z,97546.69
2023-02-28T04:44:48.937Z,97549.13
2023-02-28T04:47:15.888Z,97554.13
2023-02-28T04:49:42.571Z,97549.78
2023-02-28T04:52:09.133Z,97547.16
2023-02-28T04:54:36.301Z,97545.38
2023-02-28T04:57:02.846Z,97541.97
2023-02-28T04:59:29.278Z,97549.63
2023-02-28T05:01:55.761Z,97547.06
2023-02-28T05:04:22.454Z,97546.28
2023-02-28T05:06:48.953Z,97552.38
2023-02-28T05:09:15.535Z,97551.72
2023-02-28T05:11:41.983Z,97550.94
2023-02-28T05:14:11.027Z,97548.59
2023-02-28T05:16:37.654Z,97557.16
2023-02-28T05:19:04.381Z,97543.72
2023-02-28T05:21:31.998Z,97542.06
2023-02-28T05:23:59.730Z,97547.97
2023-02-28T05:26:26.411Z,97554.69
2023-02-28T05:28:52.882Z,97552.16
2023-02-28T05:31:19.454Z,97557.22
2023-02-28T05:33:46.153Z,97556.34
2023-02-28T05:36:12.689Z,97565.59
2023-02-28T05:38:39.173Z,97559.75
2023-02-28T05:41:06.348Z,97571.53
2023-02-28T05:43:32.835Z,97565.69
2023-02-28T05:45:59.515Z,97564.00
2023-02-28T05:48:27.086Z,97580.00
2023-02-28T05:50:53.598Z,97579.13
2023-02-28T05:53:20.060Z,97586.69
2023-02-28T05:55:46.495Z,97591.66
2023-02-28T05:58:12.924Z,97589.78
2023-02-28T06:00:41.492Z,97598.94
2023-02-28T06:03:08.790Z,97605.53
2023-02-28T06:05:35.316Z,97602.84
2023-02-28T06:08:01.796Z,97601.78
2023-02-28T06:10:28.442Z,97607.47
2023-02-28T06:12:55.232Z,97608.78
2023-02-28T06:15:22.074Z,97613.59
2023-02-28T06:17:48.505Z,97609.16
2023-02-28T06:20:15.008Z,97602.25
2023-02-28T06:22:41.690Z,97613.88
2023-02-28T06:25:08.382Z,97614.53
2023-02-28T06:27:34.984Z,97616.84
2023-02-28T06:30:03.733Z,97618.31
2023-02-28T06:32:30.182Z,97619.91
2023-02-28T06:34:58.359Z,97618.84
2023-02-28T06:37:27.277Z,97617.75
2023-02-28T06:39:54.935Z,97614.13
2023-02-28T06:42:21.513Z,97614.72
2023-02-28T06:44:48.022Z,97611.03
2023-02-28T06:47:14.660Z,97614.22
2023-02-28T06:49:41.149Z,97613.19
2023-02-28T06:52:07.853Z,97615.53
2023-02-28T06:54:34.479Z,97611.09
2023-02-28T06:57:01.118Z,97616.66
2023-02-28T06:59:27.674Z,97623.94
2023-02-28T07:01:54.143Z,97622.00
2023-02-28T07:04:45.756Z,97627.78
2023-02-28T07:07:12.286Z,97628.53
2023-02-28T07:09:38.945Z,97628.38
2023-02-28T07:12:05.506Z,97630.72
2023-02-28T07:14:31.966Z,97630.91
2023-02-28T07:16:58.394Z,97629.50
2023-02-28T07:19:24.936Z,97629.09
2023-02-28T07:21:51.358Z,97628.28
2023-02-28T07:24:19.024Z,97636.81
2023-02-28T07:26:45.520Z,97637.47
2023-02-28T07:29:12.075Z,97633.16
2023-02-28T07:31:38.562Z,97644.19
2023-02-28T07:34:05.590Z,97647.06
2023-02-28T07:36:32.081Z,97642.81
2023-02-28T07:38:59.008Z,97647.34
2023-02-28T07:41:29.130Z,97646.38
2023-02-28T07:44:00.633Z,97654.38
2023-02-28T07:46:29.579Z,97651.75
2023-02-28T07:49:00.414Z,97643.75
2023-02-28T07:51:27.144Z,97638.47
2023-02-28T07:53:53.717Z,97645.06
2023-02-28T07:56:20.458Z,97640.28
2023-02-28T07:58:49.147Z,97646.91
2023-02-28T08:01:15.745Z,97637.38
2023-02-28T08:03:42.422Z,97637.19
2023-02-28T08:06:09.628Z,97644.38
2023-02-28T08:08:36.389Z,97636.94
2023-02-28T08:11:03.254Z,97642.56
2023-02-28T08:13:30.063Z,97634.84
2023-02-28T08:15:56.815Z,97640.47
2023-02-28T08:18:23.569Z,97638.41
2023-02-28T08:20:50.280Z,97642.28
2023-02-28T08:23:16.922Z,97643.16
2023-02-28T08:25:43.616Z,97641.72
2023-02-28T08:28:10.475Z,97643.97
2023-02-28T08:30:37.010Z,97648.56
2023-02-28T08:33:03.690Z,97654.72
2023-02-28T08:35:30.316Z,97649.06
2023-02-28T08:37:56.881Z,97561.03
2023-02-28T08:40:23.579Z,97652.03
2023-02-28T08:42:50.624Z,97652.94
2023-02-28T08:45:17.313Z,97654.03
2023-02-28T08:47:43.917Z,97657.38
2023-02-28T08:50:10.698Z,97652.63
2023-02-28T08:52:37.231Z,97666.94
2023-02-28T08:55:03.789Z,97663.06
2023-02-28T08:57:30.375Z,97661.22
2023-02-28T08:59:56.972Z,97655.66
2023-02-28T09:02:23.563Z,97657.41
2023-02-28T09:04:50.099Z,97652.97
2023-02-28T09:07:16.840Z,97648.56
2023-02-28T09:09:54.778Z,97652.31
2023-02-28T09:12:22.464Z,97654.88
2023-02-28T09:14:48.970Z,97653.34
2023-02-28T09:17:16.070Z,97647.53
2023-02-28T09:19:43.731Z,97644.03
2023-02-28T09:22:10.664Z,97645.66
2023-02-28T09:24:38.163Z,97641.94
2023-02-28T09:27:05.796Z,97653.91
2023-02-28T09:29:33.181Z,97648.72
2023-02-28T09:32:00.012Z,97643.91
2023-02-28T09:34:27.071Z,97647.94
2023-02-28T09:36:55.804Z,97647.41
2023-02-28T09:39:22.999Z,97645.28
2023-02-28T09:41:51.906Z,97643.16
2023-02-28T09:44:37.809Z,97641.56
2023-02-28T09:47:07.400Z,97649.66
2023-02-28T09:49:38.975Z,97655.16
2023-02-28T09:52:10.131Z,97658.69
2023-02-28T09:54:37.122Z,97658.53
2023-02-28T09:57:12.404Z,97650.38
2023-02-28T09:59:57.791Z,97659.94
2023-02-28T10:02:30.329Z,97648.53
2023-02-28T10:05:00.924Z,97650.94
2023-02-28T10:07:45.950Z,97641.50
2023-02-28T10:10:26.717Z,97638.19
2023-02-28T10:12:53.949Z,97642.56
2023-02-28T10:15:20.394Z,97641.06
2023-02-28T10:18:00.697Z,97640.50
2023-02-28T10:20:36.558Z,97640.00
2023-02-28T10:23:08.652Z,97632.16
2023-02-28T10:25:35.750Z,97628.84
2023-02-28T10:28:05.913Z,97632.16
2023-02-28T10:30:35.316Z,97624.03
2023-02-28T10:33:01.860Z,97608.59
2023-02-28T10:35:28.760Z,97614.13
2023-02-28T10:37:56.136Z,97610.91
2023-02-28T10:40:22.857Z,97621.22
2023-02-28T10:43:05.721Z,97614.72
2023-02-28T10:45:33.262Z,97610.56
2023-02-28T10:48:06.657Z,97612.97
2023-02-28T10:50:46.067Z,97613.63
2023-02-28T10:53:18.563Z,97606.91
2023-02-28T10:55:45.044Z,97605.94
2023-02-28T10:58:24.461Z,97600.06
2023-02-28T11:00:51.314Z,97592.72
2023-02-28T11:03:24.064Z,97591.97
2023-02-28T11:05:50.520Z,97573.53
2023-02-28T11:08:17.373Z,97594.69
2023-02-28T11:10:47.468Z,97587.75
2023-02-28T11:13:19.076Z,97592.97
2023-02-28T11:15:50.475Z,97589.88
2023-02-28T11:18:21.505Z,97599.97
2023-02-28T11:20:51.942Z,97589.63
2023-02-28T11:23:20.010Z,97588.00
2023-02-28T11:25:50.566Z,97594.03
2023-02-28T11:28:30.385Z,97598.16
2023-02-28T11:31:00.887Z,97598.56
2023-02-28T11:33:29.107Z,97582.56
2023-02-28T11:35:56.968Z,97582.56
2023-02-28T11:38:23.738Z,97575.63
2023-02-28T11:40:53.260Z,97581.00
2023-02-28T11:43:32.600Z,97578.59
2023-02-28T11:46:03.110Z,97578.19
2023-02-28T11:48:29.587Z,97569.25
2023-02-28T11:50:56.045Z,97580.66
2023-02-28T11:53:41.918Z,97582.50
2023-02-28T11:56:25.681Z,97574.88
2023-02-28T11:59:10.960Z,97583.25
2023-02-28T12:01:43.431Z,97574.53
2023-02-28T12:04:25.474Z,97574.13
2023-02-28T12:07:06.227Z,97575.63
2023-02-28T12:09:42.742Z,97581.41
2023-02-28T12:12:12.247Z,97569.00
2023-02-28T12:14:58.024Z,97568.91
2023-02-28T12:17:30.911Z,97566.41
2023-02-28T12:20:00.908Z,97555.13
2023-02-28T12:22:37.403Z,97549.72
2023-02-28T12:25:04.201Z,97556.41
2023-02-28T12:27:32.395Z,97548.47
2023-02-28T12:29:58.945Z,97552.44
2023-02-28T12:32:33.369Z,97545.13
2023-02-28T12:35:02.741Z,97541.59
2023-02-28T12:37:31.125Z,97536.16
2023-02-28T12:40:01.838Z,97541.19
2023-02-28T12:42:31.830Z,97529.94
2023-02-28T12:45:18.540Z,97539.13
2023-02-28T12:47:45.779Z,97534.16
2023-02-28T12:50:12.827Z,97537.09
2023-02-28T12:52:48.997Z,97529.84
2023-02-28T12:55:21.933Z,97537.19
2023-02-28T12:57:51.548Z,97524.25
2023-02-28T13:00:18.859Z,97526.44
2023-02-28T13:03:04.235Z,97526.44
2023-02-28T13:05:30.724Z,97529.59
2023-02-28T13:08:03.675Z,97528.28
2023-02-28T13:10:40.379Z,97517.63
2023-02-28T13:13:06.877Z,97517.22
2023-02-28T13:15:36.231Z,97513.84
2023-02-28T13:18:02.771Z,97515.16
2023-02-28T13:20:30.974Z,97520.94
2023-02-28T13:22:58.240Z,97521.31
2023-02-28T13:25:43.209Z,97514.41
2023-02-28T13:28:10.235Z,97515.47
2023-02-28T13:31:00.543Z,97510.41
2023-02-28T13:33:28.061Z,97507.81
2023-02-28T13:36:13.456Z,97503.28
2023-02-28T13:38:46.739Z,97510.56
2023-02-28T13:41:31.641Z,97509.06
2023-02-28T13:44:07.460Z,97500.72
2023-02-28T13:46:35.090Z,97504.28
2023-02-28T13:49:20.142Z,97505.00
2023-02-28T13:51:47.930Z,97504.28
2023-02-28T13:54:26.944Z,97503.38
2023-02-28T13:57:02.851Z,97500.31
2023-02-28T13:59:33.348Z,97505.69
2023-02-28T14:02:19.418Z,97502.63
2023-02-28T14:05:01.567Z,97498.97
2023-02-28T14:07:30.532Z,97499.63
2023-02-28T14:09:59.143Z,97494.28
2023-02-28T14:12:44.133Z,97492.16
2023-02-28T14:15:43.253Z,97497.28
2023-02-28T14:18:17.053Z,97498.00
2023-02-28T14:20:43.679Z,97504.69
2023-02-28T14:23:16.202Z,97510.66
2023-02-28T14:26:07.898Z,97501.66
2023-02-28T14:28:46.581Z,97494.53
2023-02-28T14:31:19.151Z,97488.78
2023-02-28T14:33:54.767Z,97499.75
2023-02-28T14:36:22.928Z,97486.56
2023-02-28T14:38:52.900Z,97485.22
2023-02-28T14:41:22.448Z,97482.00
2023-02-28T14:43:49.826Z,97485.41
2023-02-28T14:46:16.309Z,97488.88
2023-02-28T14:48:42.823Z,97483.06
2023-02-28T14:51:09.432Z,97485.59
2023-02-28T14:53:36.651Z,97492.34
2023-02-28T14:56:03.148Z,97482.69
2023-02-28T14:58:30.668Z,97484.25
2023-02-28T15:00:58.121Z,97479.59
2023-02-28T15:03:25.660Z,97485.66
2023-02-28T15:05:56.096Z,97488.94
2023-02-28T15:08:22.735Z,97488.34
2023-02-28T15:10:55.390Z,97494.16
2023-02-28T15:13:21.886Z,97486.75
2023-02-28T15:16:02.270Z,97495.41
2023-02-28T15:18:29.657Z,97496.16
2023-02-28T15:20:56.854Z,97485.59
2023-02-28T15:23:23.358Z,97487.56
2023-02-28T15:25:50.037Z,97493.19
2023-02-28T15:28:17.663Z,97489.63
2023-02-28T15:30:51.567Z,97495.66
2023-02-28T15:33:18.065Z,97495.09
2023-02-28T15:35:45.154Z,97498.38
2023-02-28T15:38:15.495Z,97492.78
2023-02-28T15:40:42.819Z,97496.00
2023-02-28T15:43:22.258Z,97487.72
2023-02-28T15:45:49.988Z,97486.81
2023-02-28T15:48:20.812Z,97485.00
2023-02-28T15:50:53.243Z,97488.00
2023-02-28T15:53:21.183Z,97483.91
2023-02-28T15:55:52.997Z,97496.25
2023-02-28T15:58:19.860Z,97492.34
2023-02-28T16:00:50.479Z,97496.41
2023-02-28T16:03:34.106Z,97495.22
2023-02-28T16:06:30.089Z,97497.28
2023-02-28T16:08:56.550Z,97501.28
2023-02-28T16:11:23.049Z,97497.38
2023-02-28T16:13:49.870Z,97500.47
2023-02-28T16:16:17.488Z,97500.16
2023-02-28T16:18:44.048Z,97501.41
2023-02-28T16:21:10.521Z,97500.91
2023-02-28T16:23:37.094Z,97500.38
2023-02-28T16:26:04.479Z,97502.09
2023-02-28T16:28:37.996Z,97500.66
2023-02-28T16:31:05.227Z,97510.47
2023-02-28T16:33:34.636Z,97508.47
2023-02-28T16:36:01.223Z,97515.78
2023-02-28T16:38:27.718Z,97517.44
2023-02-28T16:40:54.301Z,97522.13
2023-02-28T16:43:22.230Z,97532.22
2023-02-28T16:45:48.786Z,97522.28
2023-02-28T16:48:15.994Z,97525.88
2023-02-28T16:50:42.602Z,97535.41
2023-02-28T16:53:09.156Z,97522.69
2023-02-28T16:55:35.820Z,97535.81
2023-02-28T16:58:02.619Z,97534.19
2023-02-28T17:00:29.373Z,97534.44
2023-02-28T17:02:56.096Z,97535.75
2023-02-28T17:05:22.765Z,97539.59
2023-02-28T17:07:49.386Z,97545.03
2023-02-28T17:10:17.300Z,97551.03
2023-02-28T17:12:44.076Z,97553.88
2023-02-28T17:15:11.369Z,97545.13
2023-02-28T17:17:37.882Z,97541.94
2023-02-28T17:20:05.226Z,97540.47
2023-02-28T17:22:31.687Z,97542.38
2023-02-28T17:24:59.843Z,97545.69
2023-02-28T17:27:26.391Z,97554.31
2023-02-28T17:29:52.811Z,97549.22
2023-02-28T17:32:19.647Z,97542.72
2023-02-28T17:34:47.134Z,97552.97
2023-02-28T17:37:13.893Z,97555.78
2023-02-28T17:39:40.903Z,97556.88
2023-02-28T17:42:07.415Z,97557.84
2023-02-28T17:44:33.934Z,97557.13
2023-02-28T17:47:00.391Z,97553.75
2023-02-28T17:49:27.271Z,97554.81
2023-02-28T17:51:53.734Z,97556.47
2023-02-28T17:54:20.941Z,97549.69
2023-02-28T17:56:47.513Z,97555.72
2023-02-28T17:59:14.065Z,97560.00
2023-02-28T18:01:40.634Z,97561.00
2023-02-28T18:04:07.422Z,97560.25
2023-02-28T18:06:47.576Z,97556.88
2023-02-28T18:09:18.488Z,97557.13
2023-02-28T18:11:50.079Z,97558.03
2023-02-28T18:14:17.093Z,97553.09
2023-02-28T18:16:43.666Z,97556.59
2023-02-28T18:19:15.146Z,97560.09
2023-02-28T18:21:43.253Z,97561.06
2023-02-28T18:24:10.064Z,97564.44
2023-02-28T18:26:36.859Z,97562.81
2023-02-28T18:29:03.637Z,97562.81
2023-02-28T18:31:32.519Z,97565.50
2023-02-28T18:33:59.474Z,97562.97
2023-02-28T18:36:26.041Z,97564.72
2023-02-28T18:38:52.707Z,97567.34
2023-02-28T18:41:21.650Z,97561.53
2023-02-28T18:43:48.343Z,97559.03
2023-02-28T18:46:15.768Z,97559.13
2023-02-28T18:48:42.246Z,97559.19
2023-02-28T18:51:21.945Z,97559.22
2023-02-28T18:53:48.386Z,97554.25
2023-02-28T18:56:15.682Z,97558.59
2023-02-28T18:58:42.282Z,97561.19
2023-02-28T19:01:14.957Z,97562.00
2023-02-28T19:03:41.477Z,97564.69
2023-02-28T19:06:08.117Z,97563.03
2023-02-28T19:08:34.644Z,97563.06
2023-02-28T19:11:06.269Z,97560.53
2023-02-28T19:13:32.768Z,97556.28
2023-02-28T19:16:02.774Z,97558.84
2023-02-28T19:18:29.385Z,97558.84
2023-02-28T19:20:55.893Z,97553.91
2023-02-28T19:23:22.377Z,97559.91
2023-02-28T19:25:48.890Z,97560.91
2023-02-28T19:28:15.518Z,97559.34
2023-02-28T19:30:46.808Z,97565.41
2023-02-28T19:33:13.546Z,97567.22
2023-02-28T19:35:40.596Z,97563.09
2023-02-28T19:38:07.134Z,97564.03
2023-02-28T19:40:33.610Z,97560.78
2023-02-28T19:43:02.747Z,97560.00
2023-02-28T19:45:30.338Z,97561.78
2023-02-28T19:47:56.949Z,97567.75
2023-02-28T19:50:23.420Z,97566.16
2023-02-28T19:52:50.629Z,97556.03
2023-02-28T19:55:17.342Z,97559.47
2023-02-28T19:57:43.811Z,97559.53
2023-02-28T20:00:11.412Z,97566.44
2023-02-28T20:02:38.101Z,97562.34
2023-02-28T20:05:04.749Z,97565.84
2023-02-28T20:07:32.002Z,97559.19
2023-02-28T20:09:58.611Z,97555.06
2023-02-28T20:12:26.248Z,97561.91
2023-02-28T20:14:53.011Z,97561.13
2023-02-28T20:17:19.488Z,97557.84
2023-02-28T20:19:46.007Z,97552.75
2023-02-28T20:22:12.531Z,97557.94
2023-02-28T20:24:39.000Z,97563.09
2023-02-28T20:27:05.583Z,97564.03
2023-02-28T20:29:33.124Z,97566.69
2023-02-28T20:31:59.704Z,97560.81
2023-02-28T20:34:27.049Z,97561.81
2023-02-28T20:36:53.540Z,97564.34
2023-02-28T20:39:20.098Z,97572.97
2023-02-28T20:41:47.308Z,97563.91
2023-02-28T20:44:13.860Z,97565.78
2023-02-28T20:46:41.670Z,97571.84
2023-02-28T20:49:08.177Z,97574.59
2023-02-28T20:51:34.746Z,97573.06
2023-02-28T20:54:01.211Z,97574.16
2023-02-28T20:56:27.986Z,97562.72
2023-02-28T20:58:58.209Z,97568.16
2023-02-28T21:01:28.273Z,97565.91
2023-02-28T21:03:56.175Z,97562.66
2023-02-28T21:06:23.646Z,97552.66
2023-02-28T21:08:50.575Z,97550.16
2023-02-28T21:11:18.262Z,97545.16
2023-02-28T21:13:44.989Z,97551.19
2023-02-28T21:16:12.320Z,97551.19
2023-02-28T21:18:38.898Z,97551.94
2023-02-28T21:21:05.900Z,97560.44
2023-02-28T21:23:32.389Z,97559.66
2023-02-28T21:26:03.103Z,97558.00
2023-02-28T21:28:29.616Z,97560.47
2023-02-28T21:31:00.583Z,97563.00
2023-02-28T21:33:27.117Z,97557.09
2023-02-28T21:35:59.703Z,97563.06
2023-02-28T21:38:26.332Z,97563.19
2023-02-28T21:40:53.083Z,97560.72
2023-02-28T21:43:19.542Z,97565.03
2023-02-28T21:45:46.043Z,97570.13
2023-02-28T21:48:12.536Z,97565.00
2023-02-28T21:50:39.919Z,97566.59
2023-02-28T21:53:06.450Z,97569.09
2023-02-28T21:55:34.337Z,97576.72
2023-02-28T21:58:00.805Z,97570.84
2023-02-28T22:00:27.492Z,97576.03
2023-02-28T22:02:54.558Z,97577.81
2023-02-28T22:05:21.383Z,97573.63
2023-02-28T22:07:47.844Z,97570.31
2023-02-28T22:10:14.457Z,97570.47
2023-02-28T22:12:40.987Z,97577.34
2023-02-28T22:15:07.648Z,97574.97
2023-02-28T22:17:34.140Z,97580.13
2023-02-28T22:20:00.636Z,97581.84
2023-02-28T22:22:27.489Z,97585.34
2023-02-28T22:24:53.952Z,97590.41
2023-02-28T22:27:20.524Z,97587.03
2023-02-28T22:29:48.722Z,97582.91
2023-02-28T22:32:15.593Z,97582.09
2023-02-28T22:34:42.202Z,97583.91
2023-02-28T22:37:08.688Z,97587.34
2023-02-28T22:39:35.154Z,97589.97
2023-02-28T22:42:01.750Z,97586.53
2023-02-28T22:44:28.430Z,97594.19
2023-02-28T22:46:54.951Z,97594.25
2023-02-28T22:49:21.572Z,97590.13
2023-02-28T22:51:48.135Z,97586.00
2023-02-28T22:54:14.606Z,97587.72
2023-02-28T22:56:41.403Z,97593.69
2023-02-28T22:59:07.997Z,97589.50
2023-02-28T23:01:34.794Z,97587.78
2023-02-28T23:04:01.379Z,97596.22
2023-02-28T23:06:29.132Z,97597.94
2023-02-28T23:08:56.651Z,97596.28
2023-02-28T23:11:23.976Z,97601.31
2023-02-28T23:13:59.695Z,97594.47
2023-02-28T23:16:27.254Z,97592.03
2023-02-28T23:18:53.741Z,97589.56
2023-02-28T23:21:20.259Z,97587.00
2023-02-28T23:23:46.714Z,97585.38
2023-02-28T23:26:13.169Z,97585.50
2023-02-28T23:28:39.695Z,97588.09
2023-02-28T23:31:06.319Z,97584.69
2023-02-28T23:33:33.089Z,97583.06
2023-02-28T23:36:17.027Z,97583.13
2023-02-28T23:38:45.755Z,97582.25
2023-02-28T23:41:12.398Z,97585.66
2023-02-28T23:43:40.815Z,97583.13
2023-02-28T23:46:07.642Z,97584.78
2023-02-28T23:48:34.222Z,97587.38
2023-02-28T23:51:01.492Z,97583.22
2023-02-28T23:53:30.144Z,97579.88
2023-02-28T23:55:56.805Z,97584.97
2023-02-28T23:58:23.343Z,97589.28
